Time;durP1;ratioP1;P1;durP2;ratioP2;P2;SDS_P1;SDS_P2;PMS_P1;PMS_P2;Temp;Humidity;BMP_temperature;BMP_pressure;BME280_temperature;BME280_humidity;BME280_pressure;Samples;Min_cycle;Max_cycle;Signal;HPM_P1;HPM_P2
2022/04/21 00:00:12;;;;;;;5.28;4.13;;;15.10;22.40;;;;;;4935277;29;20024;-37
2022/04/21 00:02:38;;;;;;;6.95;4.43;;;15.10;22.70;;;;;;4936672;29;20346;-37
2022/04/21 00:05:04;;;;;;;6.28;4.25;;;15.00;22.80;;;;;;4935820;29;20036;-37
2022/04/21 00:07:30;;;;;;;6.80;4.07;;;15.00;22.40;;;;;;4936592;29;20040;-37
2022/04/21 00:09:56;;;;;;;7.95;4.20;;;15.00;22.20;;;;;;4918685;29;20119;-37
2022/04/21 00:12:21;;;;;;;8.02;3.63;;;15.00;22.10;;;;;;4919449;29;20031;-37
2022/04/21 00:14:47;;;;;;;4.32;3.60;;;15.00;21.60;;;;;;4935780;29;20102;-37
2022/04/21 00:17:13;;;;;;;7.65;3.97;;;14.90;21.70;;;;;;4935790;29;20039;-37
2022/04/21 00:19:38;;;;;;;5.30;3.55;;;15.00;22.10;;;;;;4935523;29;20027;-37
2022/04/21 00:24:49;;;;;;;3.80;3.40;;;14.90;21.50;;;;;;4936007;29;20082;-37
2022/04/21 00:27:15;;;;;;;6.57;3.25;;;14.80;21.30;;;;;;4936103;29;20047;-37
2022/04/21 00:29:40;;;;;;;6.15;3.10;;;14.70;20.60;;;;;;4935602;29;20078;-37
2022/04/21 00:32:06;;;;;;;3.78;3.45;;;14.70;20.70;;;;;;4918908;29;20379;-37
2022/04/21 00:34:32;;;;;;;4.22;3.20;;;14.70;20.80;;;;;;4935511;29;20148;-37
2022/04/21 00:36:59;;;;;;;4.63;3.42;;;14.70;20.30;;;;;;4936195;29;20028;-37
2022/04/21 00:39:25;;;;;;;5.65;3.40;;;14.70;20.20;;;;;;4933942;29;20031;-37
2022/04/21 00:42:01;;;;;;;3.90;3.30;;;14.80;20.10;;;;;;4936263;29;20038;-37
2022/04/21 00:44:28;;;;;;;4.35;2.78;;;14.70;19.60;;;;;;4928032;29;20027;-37
2022/04/21 00:46:56;;;;;;;5.35;2.85;;;14.70;19.70;;;;;;4935798;29;20071;-37
2022/04/21 00:49:22;;;;;;;4.65;2.80;;;14.60;19.10;;;;;;4935199;29;20020;-37
2022/04/21 00:51:49;;;;;;;8.15;3.08;;;14.60;19.50;;;;;;4916933;29;20031;-37
2022/04/21 00:54:16;;;;;;;3.97;2.67;;;14.60;19.20;;;;;;4935281;29;20038;-37
2022/04/21 00:56:43;;;;;;;2.58;2.38;;;14.50;19.00;;;;;;4935827;29;20080;-37
2022/04/21 00:59:12;;;;;;;6.38;2.80;;;14.50;18.60;;;;;;4934039;29;20118;-37
2022/04/21 01:04:23;;;;;;;4.05;2.92;;;14.50;18.40;;;;;;4934509;29;20042;-38
2022/04/21 01:06:51;;;;;;;2.90;2.30;;;14.40;17.90;;;;;;4935512;29;20039;-37
2022/04/21 01:09:17;;;;;;;3.40;3.00;;;14.50;17.80;;;;;;4934799;29;20035;-38
2022/04/21 01:11:43;;;;;;;4.55;2.55;;;14.20;17.50;;;;;;4935557;29;20027;-38
2022/04/21 01:14:09;;;;;;;5.72;3.08;;;14.40;23.40;;;;;;4934228;29;20385;-38
2022/04/21 01:16:35;;;;;;;4.20;2.95;;;14.40;26.00;;;;;;4934666;29;20102;-38
2022/04/21 01:19:01;;;;;;;3.65;2.70;;;14.50;26.60;;;;;;4933955;29;20020;-39
2022/04/21 01:21:29;;;;;;;4.95;2.85;;;14.40;21.20;;;;;;4934680;29;20050;-38
2022/04/21 01:23:55;;;;;;;3.17;2.65;;;;;;;;;;4933225;29;20023;-38
2022/04/21 01:26:22;;;;;;;4.47;2.65;;;14.20;16.90;;;;;;4917386;29;20108;-38
2022/04/21 01:28:49;;;;;;;6.07;2.90;;;14.30;16.90;;;;;;4934169;29;20028;-38
2022/04/21 01:31:24;;;;;;;6.03;3.13;;;14.20;16.70;;;;;;4934350;29;20063;-38
2022/04/21 01:33:50;;;;;;;4.00;2.60;;;14.20;16.60;;;;;;4932288;29;20052;-38
2022/04/21 01:36:17;;;;;;;3.60;2.60;;;;;;;;;;4934593;29;20099;-38
2022/04/21 01:41:26;;;;;;;4.90;2.92;;;14.30;16.30;;;;;;4915970;29;20115;-37
2022/04/21 01:43:52;;;;;;;2.95;2.50;;;14.20;16.00;;;;;;4915248;29;20111;-38
2022/04/21 01:46:18;;;;;;;4.38;1.95;;;14.20;15.70;;;;;;4933188;29;20482;-38
2022/04/21 01:48:43;;;;;;;2.90;1.95;;;14.20;15.60;;;;;;4934229;29;20430;-38
2022/04/21 01:51:09;;;;;;;4.50;2.58;;;14.20;15.80;;;;;;4933442;29;20042;-38
2022/04/21 01:53:35;;;;;;;6.13;2.17;;;14.10;15.20;;;;;;4934615;29;20040;-38
2022/04/21 01:56:01;;;;;;;2.25;2.05;;;14.10;14.90;;;;;;4933745;29;20358;-38
2022/04/21 01:58:26;;;;;;;3.92;2.33;;;14.10;14.70;;;;;;4934327;29;20039;-38
2022/04/21 02:00:52;;;;;;;7.97;2.67;;;14.10;14.40;;;;;;4933344;29;20079;-37
2022/04/21 02:03:18;;;;;;;3.33;2.63;;;14.00;14.10;;;;;;4933474;29;20367;-38
2022/04/21 02:05:44;;;;;;;5.85;2.47;;;14.00;14.00;;;;;;4933931;29;20098;-37
2022/04/21 02:08:09;;;;;;;3.08;2.10;;;14.10;14.10;;;;;;4933592;29;20056;-37
2022/04/21 02:10:35;;;;;;;2.85;2.30;;;14.00;13.80;;;;;;4934244;29;20055;-38
2022/04/21 02:13:01;;;;;;;6.43;2.50;;;14.00;14.00;;;;;;4932796;29;20486;-37
2022/04/21 02:15:27;;;;;;;3.03;2.28;;;14.00;13.70;;;;;;4934198;29;20059;-37
2022/04/21 02:17:53;;;;;;;3.78;2.60;;;14.00;13.90;;;;;;4934865;29;20118;-37
2022/04/21 02:20:19;;;;;;;5.07;2.50;;;14.10;13.60;;;;;;4934092;29;20035;-38
2022/04/21 02:22:45;;;;;;;3.97;2.53;;;14.00;13.20;;;;;;4932729;29;20480;-38
2022/04/21 02:25:13;;;;;;;4.90;2.10;;;14.00;13.50;;;;;;4934002;29;20024;-38
2022/04/21 02:27:41;;;;;;;3.33;2.25;;;14.00;13.10;;;;;;4934574;29;20040;-38
2022/04/21 02:30:08;;;;;;;3.65;2.30;;;14.00;13.20;;;;;;4934039;29;20024;-37
2022/04/21 02:32:35;;;;;;;4.15;2.65;;;13.90;13.00;;;;;;4934399;29;20052;-37
2022/04/21 02:35:02;;;;;;;3.30;2.40;;;13.90;13.00;;;;;;4933723;29;20380;-37
2022/04/21 02:37:28;;;;;;;5.53;2.42;;;13.90;12.90;;;;;;4934114;29;20350;-37
2022/04/21 02:39:54;;;;;;;2.42;2.20;;;14.00;13.10;;;;;;4935756;29;20032;-38
2022/04/21 02:42:20;;;;;;;2.38;2.00;;;13.90;13.00;;;;;;4938273;29;20035;-38
2022/04/21 02:44:46;;;;;;;2.90;2.20;;;13.90;12.90;;;;;;4937536;29;20027;-38
2022/04/21 02:47:12;;;;;;;5.22;2.53;;;13.90;12.90;;;;;;4937635;29;20118;-38
2022/04/21 02:49:40;;;;;;;3.83;2.72;;;13.80;12.80;;;;;;4937202;29;20102;-38
2022/04/21 02:52:09;;;;;;;4.60;3.28;;;13.60;12.80;;;;;;4922571;29;20497;-37
2022/04/21 02:57:22;;;;;;;2.35;2.15;;;13.80;13.10;;;;;;4919328;29;20528;-38
2022/04/21 02:59:59;;;;;;;4.05;2.58;;;13.80;13.00;;;;;;4919761;29;20473;-38
2022/04/21 03:02:25;;;;;;;5.25;3.10;;;13.80;13.30;;;;;;4937430;29;20123;-38
2022/04/21 03:04:52;;;;;;;3.30;2.40;;;13.70;13.00;;;;;;4937223;29;20047;-39
2022/04/21 03:07:27;;;;;;;4.72;2.60;;;13.70;13.10;;;;;;4937880;29;20044;-38
2022/04/21 03:19:39;;;;;;;4.05;2.50;;;13.80;12.90;;;;;;4932089;29;20046;-38
2022/04/21 03:24:53;;;;;;;3.15;2.08;;;13.60;12.50;;;;;;4937051;29;20035;-38
2022/04/21 03:27:18;;;;;;;3.60;2.20;;;13.70;12.20;;;;;;4937798;29;20043;-38
2022/04/21 03:29:44;;;;;;;5.78;2.53;;;13.70;12.50;;;;;;4936618;29;20027;-38
2022/04/21 03:32:13;;;;;;;3.03;2.72;;;13.70;12.20;;;;;;4937233;29;20027;-37
2022/04/21 03:34:40;;;;;;;5.70;2.75;;;13.70;12.20;;;;;;4935523;29;20473;-37
2022/04/21 03:37:07;;;;;;;4.85;2.00;;;13.70;12.20;;;;;;4937310;29;20042;-37
2022/04/21 03:39:34;;;;;;;2.95;2.65;;;13.80;12.40;;;;;;4936402;29;20072;-38
2022/04/21 03:42:01;;;;;;;3.88;2.67;;;13.80;12.10;;;;;;4937263;29;20532;-38
2022/04/21 03:44:27;;;;;;;5.63;2.70;;;13.80;12.10;;;;;;4936436;29;20035;-38
2022/04/21 03:46:57;;;;;;;3.10;2.45;;;13.80;11.90;;;;;;4937286;29;20100;-38
2022/04/21 03:49:24;;;;;;;4.68;2.85;;;13.80;12.10;;;;;;4935058;29;20035;-38
2022/04/21 03:51:49;;;;;;;4.20;2.15;;;13.80;12.60;;;;;;4936118;29;20139;-37
2022/04/21 03:54:15;;;;;;;4.13;2.30;;;13.80;12.10;;;;;;4918390;29;20144;-38
2022/04/21 03:56:41;;;;;;;3.53;2.50;;;13.90;12.10;;;;;;4936412;29;20899;-38
2022/04/21 03:59:06;;;;;;;3.60;2.55;;;13.90;12.30;;;;;;4930727;29;20546;-38
2022/04/21 04:01:32;;;;;;;5.40;2.50;;;13.90;12.20;;;;;;4927667;29;20039;-38
2022/04/21 04:03:58;;;;;;;7.15;2.40;;;13.90;12.40;;;;;;4921699;29;20060;-38
2022/04/21 04:11:52;;;;;;;5.00;2.10;;;13.90;12.10;;;;;;4935156;29;20047;-38
2022/04/21 04:14:17;;;;;;;3.47;2.42;;;13.90;12.00;;;;;;4936090;29;20645;-37
2022/04/21 04:16:44;;;;;;;4.10;2.30;;;14.00;11.90;;;;;;4935799;29;20024;-38
2022/04/21 04:19:11;;;;;;;4.88;2.10;;;13.90;11.70;;;;;;4935642;29;20108;-38
2022/04/21 04:21:37;;;;;;;5.45;2.35;;;13.90;11.80;;;;;;4936474;29;20564;-38
2022/04/21 04:24:03;;;;;;;2.55;2.13;;;13.70;11.50;;;;;;4935417;29;20087;-38
2022/04/21 04:26:31;;;;;;;4.07;2.67;;;13.80;11.80;;;;;;4936567;29;20049;-38
2022/04/21 04:28:57;;;;;;;3.75;2.47;;;13.80;11.30;;;;;;4935607;29;20028;-38
2022/04/21 04:31:23;;;;;;;7.07;2.70;;;13.80;11.00;;;;;;4936068;29;20114;-38
2022/04/21 04:33:48;;;;;;;3.80;1.95;;;13.90;11.10;;;;;;4934823;29;20442;-38
2022/04/21 04:36:16;;;;;;;5.30;2.63;;;13.80;10.80;;;;;;4935365;29;20027;-38
2022/04/21 04:38:43;;;;;;;4.50;2.30;;;13.80;11.00;;;;;;4936136;29;20028;-38
2022/04/21 04:43:53;;;;;;;2.53;2.05;;;13.90;11.00;;;;;;4936460;29;20046;-38
2022/04/21 04:46:39;;;;;;;6.40;2.40;;;13.90;11.10;;;;;;4934299;29;20369;-38
2022/04/21 04:49:07;;;;;;;3.40;2.70;;;13.80;11.20;;;;;;4934823;29;20028;-38
2022/04/21 04:51:41;;;;;;;3.97;2.30;;;13.90;11.60;;;;;;4916654;29;20031;-38
2022/04/21 04:54:12;;;;;;;4.45;2.70;;;13.90;11.50;;;;;;4917102;29;20028;-38
2022/04/21 04:56:39;;;;;;;3.80;2.47;;;14.00;11.40;;;;;;4935780;29;20106;-38
2022/04/21 04:59:05;;;;;;;4.68;2.50;;;14.00;11.50;;;;;;4935150;29;20066;-38
2022/04/21 05:01:39;;;;;;;2.90;2.47;;;13.90;11.50;;;;;;4934570;29;20028;-38
2022/04/21 05:04:09;;;;;;;3.70;2.00;;;14.00;11.60;;;;;;4935113;29;20148;-38
2022/04/21 05:06:40;;;;;;;4.05;2.58;;;14.00;11.70;;;;;;4935589;29;20036;-38
2022/04/21 05:09:07;;;;;;;3.17;2.30;;;13.90;11.60;;;;;;4935475;29;20036;-39
2022/04/21 05:11:33;;;;;;;3.55;1.85;;;14.00;12.20;;;;;;4934529;29;20032;-38
2022/04/21 05:14:00;;;;;;;3.35;2.08;;;14.00;11.80;;;;;;4933947;29;20110;-38
2022/04/21 05:16:27;;;;;;;5.22;2.42;;;14.00;11.70;;;;;;4917683;29;20060;-38
2022/04/21 05:18:53;;;;;;;4.95;2.28;;;14.00;11.00;;;;;;4935545;29;20031;-38
2022/04/21 05:21:19;;;;;;;3.03;2.35;;;14.00;10.70;;;;;;4934717;29;20039;-38
2022/04/21 05:23:47;;;;;;;5.70;2.60;;;13.90;10.50;;;;;;4935471;29;20035;-38
2022/04/21 05:32:58;;;;;;;11.05;2.80;;;14.00;9.80;;;;;;4918867;29;20059;-37
2022/04/21 05:35:24;;;;;;;6.00;3.13;;;14.00;10.00;;;;;;4918091;29;20491;-37
2022/04/21 05:37:50;;;;;;;5.82;2.47;;;14.10;9.80;;;;;;4934307;29;20051;-37
2022/04/21 05:40:17;;;;;;;4.47;2.38;;;14.10;9.40;;;;;;4934453;29;20049;-37
2022/04/21 05:42:48;;;;;;;2.78;1.98;;;14.20;9.10;;;;;;4934650;29;20030;-38
2022/04/21 05:45:15;;;;;;;2.58;1.88;;;14.20;9.00;;;;;;4916262;29;20052;-38
2022/04/21 05:47:41;;;;;;;5.65;2.15;;;14.20;8.60;;;;;;4916245;29;20043;-38
2022/04/21 05:50:08;;;;;;;3.08;2.28;;;14.10;8.40;;;;;;4934606;29;20501;-38
2022/04/21 05:52:38;;;;;;;5.32;2.65;;;14.20;8.70;;;;;;4935165;29;20055;-38
2022/04/21 05:55:05;;;;;;;3.03;2.25;;;14.20;8.20;;;;;;4934233;29;20023;-38
2022/04/21 05:57:30;;;;;;;5.88;2.40;;;14.20;8.10;;;;;;4934406;29;20039;-38
2022/04/21 05:59:56;;;;;;;5.82;2.50;;;14.30;8.30;;;;;;4934054;29;20038;-38
2022/04/21 06:02:23;;;;;;;3.35;2.38;;;14.20;8.00;;;;;;4917915;29;20474;-38
2022/04/21 06:04:48;;;;;;;5.07;2.20;;;14.30;8.10;;;;;;4933996;29;20075;-38
2022/04/21 06:07:14;;;;;;;4.05;1.98;;;14.20;7.90;;;;;;4934751;29;20039;-38
2022/04/21 06:09:41;;;;;;;5.68;2.47;;;14.30;7.40;;;;;;4934127;29;20031;-38
2022/04/21 06:12:09;;;;;;;3.35;2.17;;;14.30;7.50;;;;;;4934825;29;20111;-38
2022/04/21 06:14:36;;;;;;;6.20;2.30;;;14.40;7.40;;;;;;4935667;29;20079;-38
2022/04/21 06:17:02;;;;;;;7.40;2.50;;;14.40;7.30;;;;;;4938768;29;20027;-37
2022/04/21 06:19:28;;;;;;;4.32;2.45;;;14.30;7.20;;;;;;4925228;29;20035;-38
2022/04/21 06:21:53;;;;;;;2.97;2.30;;;14.40;7.00;;;;;;4919686;29;20442;-38
2022/04/21 06:24:19;;;;;;;6.15;2.08;;;14.40;6.90;;;;;;4929148;29;20118;-38
2022/04/21 06:26:45;;;;;;;8.77;2.33;;;14.30;6.60;;;;;;4938804;29;20088;-38
2022/04/21 06:29:10;;;;;;;6.63;2.30;;;14.30;6.40;;;;;;4937717;29;20063;-37
2022/04/21 06:31:36;;;;;;;7.55;2.33;;;14.30;6.40;;;;;;4937649;29;20405;-38
2022/04/21 06:34:03;;;;;;;4.57;2.30;;;14.50;6.60;;;;;;4937631;29;20100;-38
2022/04/21 06:36:43;;;;;;;2.95;2.05;;;14.60;6.40;;;;;;4921236;29;20071;-38
2022/04/21 06:39:09;;;;;;;4.40;1.98;;;14.50;5.90;;;;;;4935586;29;20032;-38
2022/04/21 06:41:35;;;;;;;4.18;1.80;;;14.40;5.70;;;;;;4920036;29;20421;-37
2022/04/21 06:49:29;;;;;;;5.45;2.10;;;14.60;5.40;;;;;;4936558;29;20047;-37
2022/04/21 06:51:55;;;;;;;2.63;2.00;;;14.50;5.30;;;;;;4937272;29;20401;-38
2022/04/21 06:54:20;;;;;;;4.75;2.28;;;14.60;5.10;;;;;;4935929;29;20385;-38
2022/04/21 06:56:48;;;;;;;3.50;2.00;;;14.70;5.50;;;;;;4920946;29;20043;-38
2022/04/21 06:59:15;;;;;;;4.32;2.30;;;14.80;4.60;;;;;;4919955;29;20516;-38
2022/04/21 07:01:41;;;;;;;2.85;2.30;;;14.80;4.80;;;;;;4937282;29;20034;-39
2022/04/21 07:04:07;;;;;;;3.80;2.03;;;14.80;4.80;;;;;;4936941;29;20020;-38
2022/04/21 07:06:33;;;;;;;5.32;2.25;;;14.80;4.70;;;;;;4937952;29;20046;-37
2022/04/21 07:08:59;;;;;;;5.68;2.72;;;14.80;5.00;;;;;;4937010;29;20157;-37
2022/04/21 07:11:24;;;;;;;3.42;2.83;;;14.90;5.30;;;;;;4937565;29;20425;-37
2022/04/21 07:13:51;;;;;;;4.78;2.78;;;14.90;5.60;;;;;;4936830;29;20055;-37
2022/04/21 07:16:18;;;;;;;5.15;2.72;;;14.80;5.90;;;;;;4937682;29;20028;-38
2022/04/21 07:18:43;;;;;;;4.38;2.30;;;14.90;6.20;;;;;;4934646;29;20028;-38
2022/04/21 07:21:09;;;;;;;8.50;2.88;;;14.80;6.30;;;;;;4936786;29;20066;-38
2022/04/21 07:23:36;;;;;;;3.72;2.35;;;14.90;6.60;;;;;;4936643;29;20103;-38
2022/04/21 07:26:02;;;;;;;5.75;2.35;;;14.90;6.40;;;;;;4936562;29;20462;-38
2022/04/21 07:28:28;;;;;;;7.90;2.83;;;15.10;6.60;;;;;;4936709;29;20031;-38
2022/04/21 07:30:53;;;;;;;5.32;2.30;;;15.00;6.40;;;;;;4937273;29;20371;-38
2022/04/21 07:33:19;;;;;;;3.50;2.30;;;15.00;6.20;;;;;;4937076;29;20116;-38
2022/04/21 07:35:45;;;;;;;9.02;3.38;;;15.10;6.40;;;;;;4936613;29;20031;-38
2022/04/21 07:38:11;;;;;;;5.47;2.83;;;15.10;6.20;;;;;;4937323;29;20030;-38
2022/04/21 07:40:38;;;;;;;3.22;2.58;;;15.00;5.60;;;;;;4936293;29;20040;-38
2022/04/21 07:43:08;;;;;;;6.50;2.95;;;15.10;5.90;;;;;;4936361;29;20028;-41
2022/04/21 07:45:41;;;;;;;5.65;2.88;;;15.20;5.40;;;;;;4931464;29;20486;-38
2022/04/21 07:48:07;;;;;;;4.13;3.05;;;15.10;4.90;;;;;;4935717;29;20446;-39
2022/04/21 07:50:33;;;;;;;5.43;3.78;;;15.10;4.30;;;;;;4936340;29;20111;-38
2022/04/21 07:53:14;;;;;;;6.95;3.20;;;15.20;4.40;;;;;;4937006;29;20023;-38
2022/04/21 07:55:45;;;;;;;5.32;2.65;;;15.30;4.20;;;;;;4936267;29;20107;-38
2022/04/21 07:58:12;;;;;;;5.97;3.53;;;15.40;4.50;;;;;;4936894;29;20028;-38
2022/04/21 08:00:38;;;;;;;6.63;2.10;;;15.30;4.40;;;;;;4936029;29;20035;-38
2022/04/21 08:03:05;;;;;;;12.90;4.80;;;15.30;4.00;;;;;;4936603;29;20466;-38
2022/04/21 08:05:32;;;;;;;4.25;2.50;;;15.30;4.30;;;;;;4935840;29;20090;-38
2022/04/21 08:07:58;;;;;;;4.20;2.75;;;15.40;4.10;;;;;;4936912;29;20054;-38
2022/04/21 08:10:27;;;;;;;16.13;8.68;;;15.50;4.30;;;;;;4934964;29;20020;-38
2022/04/21 08:12:55;;;;;;;7.53;4.47;;;15.70;4.50;;;;;;4935921;29;20036;-38
2022/04/21 08:15:21;;;;;;;5.53;3.83;;;15.70;4.30;;;;;;4935742;29;20032;-38
2022/04/21 08:17:47;;;;;;;5.55;3.55;;;15.70;4.90;;;;;;4936649;29;20122;-39
2022/04/21 08:20:13;;;;;;;4.25;2.90;;;15.70;4.90;;;;;;4935860;29;20110;-38
2022/04/21 08:22:39;;;;;;;5.47;3.20;;;15.80;5.20;;;;;;4936711;29;20087;-39
2022/04/21 08:33:18;;;;;;;4.30;3.10;;;16.10;5.30;;;;;;4936222;29;20054;-40
2022/04/21 08:35:46;;;;;;;5.75;3.28;;;16.30;5.40;;;;;;4935327;29;20028;-39
2022/04/21 08:38:12;;;;;;;4.88;3.80;;;16.50;5.50;;;;;;4935364;29;20023;-39
2022/04/21 08:40:38;;;;;;;6.30;3.60;;;16.50;5.40;;;;;;4934112;29;20027;-39
2022/04/21 08:43:23;;;;;;;7.72;3.85;;;16.60;5.40;;;;;;4936050;29;20041;-39
2022/04/21 08:45:50;;;;;;;3.95;2.90;;;16.70;5.30;;;;;;4935319;29;20031;-39
2022/04/21 08:48:21;;;;;;;6.82;3.60;;;16.80;5.70;;;;;;4934239;29;20040;-39
2022/04/21 08:50:47;;;;;;;4.20;3.03;;;16.90;5.30;;;;;;4934787;29;20039;-39
2022/04/21 08:53:17;;;;;;;4.82;3.13;;;16.80;5.20;;;;;;4935903;29;20027;-39
2022/04/21 08:55:44;;;;;;;6.95;2.90;;;16.80;5.30;;;;;;4935229;29;20031;-41
2022/04/21 08:58:10;;;;;;;4.50;3.30;;;16.80;5.50;;;;;;4918542;29;20366;-40
2022/04/21 09:00:36;;;;;;;9.30;3.67;;;16.80;5.40;;;;;;4934782;29;20403;-41
2022/04/21 09:03:05;;;;;;;7.60;3.15;;;16.80;5.40;;;;;;4934453;29;20024;-41
2022/04/21 09:05:31;;;;;;;6.32;3.53;;;16.80;5.50;;;;;;4934924;29;20031;-41
2022/04/21 09:07:58;;;;;;;5.53;2.63;;;16.80;5.60;;;;;;4935538;29;20070;-41
2022/04/21 09:10:25;;;;;;;5.93;3.08;;;16.90;5.90;;;;;;4928356;29;20087;-40
2022/04/21 09:12:55;;;;;;;5.97;3.25;;;16.90;5.40;;;;;;4917919;29;20074;-40
2022/04/21 09:15:24;;;;;;;8.18;4.10;;;16.80;5.50;;;;;;4920543;29;20036;-40
2022/04/21 09:17:51;;;;;;;5.72;3.38;;;16.90;5.60;;;;;;4926987;29;20036;-41
2022/04/21 09:20:19;;;;;;;4.22;2.70;;;17.10;6.10;;;;;;4930544;29;20039;-40
2022/04/21 09:22:56;;;;;;;5.22;2.95;;;17.10;5.30;;;;;;4926006;29;20032;-40
2022/04/21 09:25:26;;;;;;;3.83;2.85;;;17.20;5.10;;;;;;4923711;29;20039;-40
2022/04/21 09:27:53;;;;;;;4.45;3.40;;;17.30;5.40;;;;;;4933725;29;20044;-40
2022/04/21 09:30:19;;;;;;;6.65;4.10;;;17.30;5.30;;;;;;4934073;29;20536;-40
2022/04/21 09:32:53;;;;;;;6.53;3.95;;;17.30;5.40;;;;;;4934516;29;20126;-40
2022/04/21 09:35:21;;;;;;;6.90;3.78;;;17.40;5.20;;;;;;4933625;29;20027;-40
2022/04/21 09:37:52;;;;;;;8.45;3.33;;;17.40;5.40;;;;;;4935154;29;20028;-40
2022/04/21 09:40:20;;;;;;;4.88;3.10;;;17.50;5.10;;;;;;4934605;29;20114;-40
2022/04/21 09:42:57;;;;;;;4.03;3.15;;;17.40;5.00;;;;;;4934897;29;20019;-40
2022/04/21 09:48:29;;;;;;;5.05;3.97;;;17.60;4.00;;;;;;4935504;29;20059;-39
2022/04/21 09:51:13;;;;;;;5.78;4.07;;;17.80;4.30;;;;;;4933947;29;20042;-40
2022/04/21 09:53:52;;;;;;;3.65;3.10;;;17.90;4.00;;;;;;4934999;29;20024;-40
2022/04/21 09:56:28;;;;;;;8.35;4.13;;;17.90;3.90;;;;;;4934188;29;20133;-39
2022/04/21 09:58:54;;;;;;;6.57;3.92;;;18.00;5.00;;;;;;4934108;29;20032;-40
2022/04/21 10:01:20;;;;;;;5.97;3.92;;;18.10;3.70;;;;;;4933252;29;20154;-40
2022/04/21 10:03:48;;;;;;;6.68;3.92;;;18.30;5.10;;;;;;4934831;29;20038;-40
2022/04/21 10:06:16;;;;;;;8.65;4.50;;;18.30;6.10;;;;;;4933911;29;20042;-40
2022/04/21 10:08:43;;;;;;;5.25;4.07;;;18.30;3.60;;;;;;4934889;29;20140;-40
2022/04/21 10:11:09;;;;;;;6.97;3.90;;;18.30;3.60;;;;;;4933148;29;20086;-39
2022/04/21 10:13:35;;;;;;;6.03;3.83;;;18.50;3.60;;;;;;4934791;29;20040;-39
2022/04/21 10:16:01;;;;;;;6.30;4.20;;;18.50;3.20;;;;;;4933925;29;20032;-40
2022/04/21 10:18:27;;;;;;;5.97;4.10;;;18.70;3.00;;;;;;4934936;29;20040;-40
2022/04/21 10:20:55;;;;;;;6.40;4.28;;;18.60;2.90;;;;;;4934166;29;20058;-39
2022/04/21 10:23:22;;;;;;;9.98;8.95;;;18.80;3.00;;;;;;4934757;29;20154;-39
2022/04/21 10:26:01;;;;;;;7.40;3.72;;;18.90;4.10;;;;;;4931898;29;20090;-39
2022/04/21 10:28:44;;;;;;;6.97;4.05;;;;;;;;;;4934055;29;20040;-39
2022/04/21 10:31:31;;;;;;;5.30;3.85;;;19.00;1.90;;;;;;4931370;29;20031;-40
2022/04/21 10:34:02;;;;;;;4.97;3.78;;;18.80;2.10;;;;;;4915547;29;20060;-39
2022/04/21 10:36:42;;;;;;;4.88;4.13;;;18.70;2.70;;;;;;4931666;29;20114;-40
2022/04/21 10:39:16;;;;;;;8.77;4.15;;;18.60;2.40;;;;;;4934691;29;20050;-40
2022/04/21 10:41:42;;;;;;;10.15;7.32;;;18.70;2.80;;;;;;4933220;29;20036;-39
2022/04/21 10:44:26;;;;;;;6.93;4.47;;;18.70;2.70;;;;;;4934595;29;20028;-40
2022/04/21 10:47:31;;;;;;;6.38;4.05;;;18.90;2.80;;;;;;4934450;29;20043;-39
2022/04/21 10:50:00;;;;;;;5.27;4.27;;;19.10;2.40;;;;;;4933994;29;20032;-39
2022/04/21 10:58:47;;;;;;;6.53;3.75;;;;;;;;;;4934617;29;20070;-40
2022/04/21 11:01:20;;;;;;;4.93;4.53;;;19.60;28.60;;;;;;4920638;29;20446;-39
2022/04/21 11:04:04;;;;;;;4.38;3.47;;;19.70;4.00;;;;;;4937283;29;20508;-40
2022/04/21 11:06:49;;;;;;;4.10;3.80;;;19.70;4.40;;;;;;4937169;29;20044;-40
2022/04/21 11:09:38;;;;;;;4.03;3.70;;;19.30;1.40;;;;;;4920025;29;20118;-41
2022/04/21 11:12:05;;;;;;;4.53;3.78;;;19.00;1.50;;;;;;4902636;29;20496;-41
2022/04/21 11:14:33;;;;;;;6.57;4.07;;;19.10;2.00;;;;;;4934016;29;20036;-39
2022/04/21 11:17:00;;;;;;;4.85;4.45;;;19.30;2.00;;;;;;4936850;29;20038;-39
2022/04/21 11:19:32;;;;;;;5.88;4.20;;;19.30;1.90;;;;;;4937520;29;20036;-40
2022/04/21 11:22:01;;;;;;;8.05;4.68;;;19.10;1.60;;;;;;4936912;29;20426;-39
2022/04/21 11:24:27;;;;;;;7.35;3.85;;;19.10;1.90;;;;;;4936623;29;20055;-39
2022/04/21 11:26:59;;;;;;;6.60;4.20;;;19.10;2.00;;;;;;4936564;29;20062;-39
2022/04/21 11:29:26;;;;;;;4.40;3.20;;;18.90;1.70;;;;;;4937695;29;20381;-39
2022/04/21 11:31:56;;;;;;;9.00;4.30;;;19.00;1.90;;;;;;4936461;29;20377;-39
2022/04/21 11:34:22;;;;;;;4.88;3.42;;;18.90;1.40;;;;;;4937528;29;20027;-39
2022/04/21 11:36:48;;;;;;;5.50;4.30;;;18.80;1.40;;;;;;4936438;29;20472;-39
2022/04/21 11:39:15;;;;;;;6.90;4.28;;;18.80;1.60;;;;;;4937230;29;20028;-39
2022/04/21 11:41:44;;;;;;;5.30;4.40;;;18.80;2.20;;;;;;4936395;29;20087;-39
2022/04/21 11:44:11;;;;;;;4.97;3.88;;;18.70;1.60;;;;;;4935757;29;20376;-38
2022/04/21 11:46:40;;;;;;;6.07;4.18;;;18.80;1.50;;;;;;4936003;29;20047;-39
2022/04/21 11:49:08;;;;;;;3.92;3.55;;;18.90;1.60;;;;;;4936957;29;20505;-39
2022/04/21 11:51:34;;;;;;;7.13;5.18;;;19.00;1.30;;;;;;4936078;29;20032;-39
2022/04/21 11:54:07;;;;;;;7.70;4.55;;;19.10;1.30;;;;;;4936206;29;20035;-39
2022/04/21 11:56:33;;;;;;;7.10;4.93;;;19.20;1.00;;;;;;4936013;29;20039;-39
2022/04/21 11:59:07;;;;;;;5.97;4.18;;;19.20;1.00;;;;;;4936783;29;20023;-39
2022/04/21 12:07:04;;;;;;;8.98;4.68;;;19.70;1.00;;;;;;4936016;29;20051;-40
2022/04/21 12:09:38;;;;;;;7.43;4.45;;;19.70;1.00;;;;;;4937079;29;20028;-40
2022/04/21 12:12:05;;;;;;;5.90;4.30;;;20.00;8.00;;;;;;4933141;29;20063;-40
2022/04/21 12:14:31;;;;;;;8.90;5.40;;;20.60;20.30;;;;;;4936807;29;20032;-40
2022/04/21 12:16:59;;;;;;;8.18;4.53;;;20.50;5.20;;;;;;4935626;29;20401;-39
2022/04/21 12:19:41;;;;;;;9.40;5.30;;;20.80;12.00;;;;;;4936345;29;20031;-39
2022/04/21 12:22:09;;;;;;;7.13;4.20;;;21.30;11.90;;;;;;4933871;29;20035;-39
2022/04/21 12:24:51;;;;;;;7.22;4.57;;;21.30;1.00;;;;;;4935203;29;20028;-40
2022/04/21 12:27:26;;;;;;;6.47;3.58;;;21.40;3.30;;;;;;4917329;29;20071;-40
2022/04/21 12:29:58;;;;;;;9.52;4.07;;;21.60;16.10;;;;;;4935063;29;20118;-39
2022/04/21 12:32:27;;;;;;;6.82;4.43;;;21.60;20.40;;;;;;4933909;29;20078;-39
2022/04/21 12:34:56;;;;;;;11.23;4.68;;;21.30;20.70;;;;;;4934700;29;20043;-40
2022/04/21 12:37:30;;;;;;;6.90;3.95;;;21.00;21.40;;;;;;4934128;29;20488;-39
2022/04/21 12:39:59;;;;;;;9.60;4.78;;;20.80;22.20;;;;;;4935126;29;20054;-40
2022/04/21 12:42:25;;;;;;;5.57;4.10;;;20.80;22.80;;;;;;4933353;29;20548;-39
2022/04/21 12:44:53;;;;;;;5.78;4.20;;;21.10;22.50;;;;;;4934682;29;20039;-39
2022/04/21 12:47:19;;;;;;;4.43;4.03;;;21.00;22.10;;;;;;4933235;29;20038;-40
2022/04/21 12:50:01;;;;;;;4.60;4.00;;;20.70;23.70;;;;;;4915655;29;20051;-40
2022/04/21 12:52:40;;;;;;;6.90;5.28;;;20.40;22.30;;;;;;4933888;29;20126;-40
2022/04/21 12:55:19;;;;;;;8.30;4.38;;;19.80;22.10;;;;;;4934593;29;20155;-40
2022/04/21 12:57:59;;;;;;;5.75;4.50;;;19.80;21.00;;;;;;4934397;29;20154;-40
2022/04/21 13:00:24;;;;;;;5.00;3.83;;;19.70;19.50;;;;;;4916257;29;20098;-39
2022/04/21 13:02:50;;;;;;;7.18;4.53;;;19.60;19.60;;;;;;4933849;29;20031;-40
2022/04/21 13:05:16;;;;;;;6.35;4.45;;;19.50;19.00;;;;;;4934368;29;20020;-40
2022/04/21 13:07:41;;;;;;;6.57;4.30;;;19.40;17.90;;;;;;4933570;29;20040;-40
2022/04/21 13:10:07;;;;;;;5.88;3.97;;;19.40;15.40;;;;;;4933561;29;20035;-40
2022/04/21 13:12:33;;;;;;;4.82;4.22;;;19.50;16.00;;;;;;4932939;29;20023;-39
2022/04/21 13:15:06;;;;;;;7.28;4.53;;;19.70;15.70;;;;;;4916061;29;20724;-39
2022/04/21 13:17:32;;;;;;;7.43;5.03;;;19.90;15.90;;;;;;4934160;29;20031;-39
2022/04/21 13:19:58;;;;;;;5.50;4.85;;;20.00;17.00;;;;;;4933566;29;20365;-39
2022/04/21 13:22:23;;;;;;;5.30;4.80;;;19.90;17.20;;;;;;4933296;29;20039;-39
2022/04/21 13:24:49;;;;;;;4.82;4.43;;;20.20;16.50;;;;;;4933272;29;20038;-39
2022/04/21 13:27:16;;;;;;;5.45;4.47;;;21.80;15.10;;;;;;4933910;29;20466;-39
2022/04/21 13:29:43;;;;;;;5.20;3.85;;;22.00;3.60;;;;;;4916854;29;20031;-39
2022/04/21 13:34:53;;;;;;;6.18;4.10;;;21.00;15.90;;;;;;4932603;29;20051;-40
2022/04/21 13:37:18;;;;;;;6.03;4.32;;;21.00;16.40;;;;;;4933840;29;20126;-39
2022/04/21 13:39:44;;;;;;;9.45;4.65;;;21.10;16.20;;;;;;4932411;29;20051;-39
2022/04/21 13:42:10;;;;;;;15.75;5.32;;;21.60;15.70;;;;;;4932278;29;20050;-40
2022/04/21 13:44:36;;;;;;;5.45;4.18;;;21.70;15.80;;;;;;4930665;29;20444;-40
2022/04/21 13:47:03;;;;;;;7.65;4.32;;;21.90;16.60;;;;;;4932099;29;20577;-40
2022/04/21 13:49:29;;;;;;;6.25;4.95;;;21.70;17.60;;;;;;4933513;29;20034;-40
2022/04/21 13:51:54;;;;;;;7.85;4.38;;;21.70;13.60;;;;;;4931871;29;20110;-40
2022/04/21 13:54:20;;;;;;;6.93;4.95;;;21.60;14.50;;;;;;4933882;29;20023;-40
2022/04/21 13:56:47;;;;;;;5.35;4.85;;;22.30;14.70;;;;;;4933009;29;20035;-40
2022/04/21 13:59:13;;;;;;;11.00;5.70;;;21.40;21.50;;;;;;4933668;29;20058;-40
2022/04/21 14:01:41;;;;;;;7.18;5.13;;;20.80;22.30;;;;;;4932558;29;20036;-40
2022/04/21 14:04:07;;;;;;;6.72;4.10;;;20.30;22.70;;;;;;4933452;29;20112;-41
2022/04/21 14:06:33;;;;;;;6.78;4.82;;;20.10;22.70;;;;;;4933064;29;20055;-41